sensor_id;sensor_type;location;lat;lon;timestamp;P1;durP1;ratioP1;P2;durP2;ratioP2
51384;SDS011;37478;55.682;37.462;2024-03-23T00:54:36;34.72;;;18.15;;
51384;SDS011;37478;55.682;37.462;2024-03-23T00:57:01;39.00;;;19.50;;
51384;SDS011;37478;55.682;37.462;2024-03-23T00:59:27;35.63;;;16.45;;
51384;SDS011;37478;55.682;37.462;2024-03-23T01:01:53;39.53;;;18.38;;
51384;SDS011;37478;55.682;37.462;2024-03-23T01:04:19;41.67;;;19.02;;
51384;SDS011;37478;55.682;37.462;2024-03-23T01:06:44;44.97;;;21.05;;
51384;SDS011;37478;55.682;37.462;2024-03-23T01:09:10;33.47;;;17.17;;
51384;SDS011;37478;55.682;37.462;2024-03-23T01:11:36;43.92;;;21.40;;
51384;SDS011;37478;55.682;37.462;2024-03-23T01:14:02;43.80;;;19.67;;
51384;SDS011;37478;55.682;37.462;2024-03-23T01:16:27;49.83;;;21.10;;
51384;SDS011;37478;55.682;37.462;2024-03-23T01:18:53;43.47;;;20.98;;
51384;SDS011;37478;55.682;37.462;2024-03-23T01:21:18;50.13;;;20.48;;
51384;SDS011;37478;55.682;37.462;2024-03-23T01:23:43;41.40;;;19.33;;
51384;SDS011;37478;55.682;37.462;2024-03-23T01:26:09;41.10;;;18.38;;
51384;SDS011;37478;55.682;37.462;2024-03-23T01:28:34;46.65;;;20.73;;
51384;SDS011;37478;55.682;37.462;2024-03-23T01:31:00;45.13;;;20.55;;
51384;SDS011;37478;55.682;37.462;2024-03-23T01:33:25;45.17;;;19.52;;
51384;SDS011;37478;55.682;37.462;2024-03-23T01:35:51;48.80;;;20.77;;
51384;SDS011;37478;55.682;37.462;2024-03-23T01:38:16;47.60;;;21.02;;
51384;SDS011;37478;55.682;37.462;2024-03-23T01:40:41;43.60;;;19.85;;
51384;SDS011;37478;55.682;37.462;2024-03-23T01:43:07;44.75;;;20.02;;
51384;SDS011;37478;55.682;37.462;2024-03-23T01:45:33;51.70;;;20.73;;
51384;SDS011;37478;55.682;37.462;2024-03-23T01:47:59;40.28;;;18.58;;
51384;SDS011;37478;55.682;37.462;2024-03-23T01:50:25;41.42;;;19.13;;
51384;SDS011;37478;55.682;37.462;2024-03-23T01:52:51;40.55;;;19.02;;
51384;SDS011;37478;55.682;37.462;2024-03-23T01:55:16;44.47;;;20.13;;
51384;SDS011;37478;55.682;37.462;2024-03-23T01:57:42;36.17;;;18.60;;
51384;SDS011;37478;55.682;37.462;2024-03-23T02:00:08;35.08;;;18.85;;
51384;SDS011;37478;55.682;37.462;2024-03-23T02:02:35;39.70;;;18.80;;
51384;SDS011;37478;55.682;37.462;2024-03-23T02:05:00;48.58;;;20.67;;
51384;SDS011;37478;55.682;37.462;2024-03-23T02:07:26;48.65;;;20.75;;
51384;SDS011;37478;55.682;37.462;2024-03-23T02:09:52;41.80;;;21.63;;
51384;SDS011;37478;55.682;37.462;2024-03-23T02:12:18;44.10;;;20.85;;
51384;SDS011;37478;55.682;37.462;2024-03-23T02:14:43;44.03;;;20.15;;
51384;SDS011;37478;55.682;37.462;2024-03-23T02:17:09;37.78;;;20.35;;
51384;SDS011;37478;55.682;37.462;2024-03-23T02:19:34;40.88;;;19.02;;
51384;SDS011;37478;55.682;37.462;2024-03-23T02:21:59;45.42;;;19.65;;
51384;SDS011;37478;55.682;37.462;2024-03-23T02:24:25;44.53;;;19.98;;
51384;SDS011;37478;55.682;37.462;2024-03-23T02:26:50;43.67;;;19.08;;
51384;SDS011;37478;55.682;37.462;2024-03-23T02:29:16;44.40;;;21.10;;
51384;SDS011;37478;55.682;37.462;2024-03-23T02:31:41;42.17;;;21.23;;
51384;SDS011;37478;55.682;37.462;2024-03-23T02:34:07;43.35;;;19.40;;
51384;SDS011;37478;55.682;37.462;2024-03-23T02:36:32;46.03;;;22.75;;
51384;SDS011;37478;55.682;37.462;2024-03-23T02:38:58;42.97;;;19.02;;
51384;SDS011;37478;55.682;37.462;2024-03-23T02:41:23;48.03;;;20.63;;
51384;SDS011;37478;55.682;37.462;2024-03-23T02:43:51;43.45;;;19.33;;
51384;SDS011;37478;55.682;37.462;2024-03-23T02:46:17;45.30;;;20.30;;
51384;SDS011;37478;55.682;37.462;2024-03-23T02:48:42;51.42;;;22.85;;
51384;SDS011;37478;55.682;37.462;2024-03-23T02:51:08;43.47;;;20.20;;
51384;SDS011;37478;55.682;37.462;2024-03-23T02:53:33;47.22;;;20.70;;
51384;SDS011;37478;55.682;37.462;2024-03-23T02:55:59;42.60;;;19.38;;
51384;SDS011;37478;55.682;37.462;2024-03-23T02:58:24;41.33;;;20.48;;
51384;SDS011;37478;55.682;37.462;2024-03-23T03:00:50;46.17;;;19.08;;
51384;SDS011;37478;55.682;37.462;2024-03-23T03:03:15;41.70;;;19.85;;
51384;SDS011;37478;55.682;37.462;2024-03-23T03:05:41;38.35;;;18.92;;
51384;SDS011;37478;55.682;37.462;2024-03-23T03:08:06;39.33;;;19.35;;
51384;SDS011;37478;55.682;37.462;2024-03-23T03:10:32;45.80;;;18.73;;
51384;SDS011;37478;55.682;37.462;2024-03-23T03:13:00;44.22;;;21.88;;
51384;SDS011;37478;55.682;37.462;2024-03-23T03:15:25;44.80;;;21.10;;
51384;SDS011;37478;55.682;37.462;2024-03-23T03:17:51;35.55;;;18.27;;
51384;SDS011;37478;55.682;37.462;2024-03-23T03:20:16;46.10;;;19.27;;
51384;SDS011;37478;55.682;37.462;2024-03-23T03:22:43;46.60;;;20.05;;
51384;SDS011;37478;55.682;37.462;2024-03-23T03:25:09;45.88;;;20.35;;
51384;SDS011;37478;55.682;37.462;2024-03-23T03:27:34;41.42;;;19.92;;
51384;SDS011;37478;55.682;37.462;2024-03-23T03:30:00;45.85;;;20.77;;
51384;SDS011;37478;55.682;37.462;2024-03-23T03:32:31;38.67;;;19.40;;
51384;SDS011;37478;55.682;37.462;2024-03-23T03:34:57;41.92;;;18.38;;
51384;SDS011;37478;55.682;37.462;2024-03-23T03:37:22;39.50;;;20.08;;
51384;SDS011;37478;55.682;37.462;2024-03-23T03:39:48;37.95;;;19.33;;
51384;SDS011;37478;55.682;37.462;2024-03-23T03:42:14;40.97;;;19.33;;
51384;SDS011;37478;55.682;37.462;2024-03-23T03:44:40;40.70;;;19.63;;
51384;SDS011;37478;55.682;37.462;2024-03-23T03:47:06;36.78;;;19.00;;
51384;SDS011;37478;55.682;37.462;2024-03-23T03:49:31;44.67;;;20.92;;
51384;SDS011;37478;55.682;37.462;2024-03-23T03:51:57;41.60;;;18.73;;
51384;SDS011;37478;55.682;37.462;2024-03-23T03:54:22;43.25;;;20.00;;
51384;SDS011;37478;55.682;37.462;2024-03-23T03:56:47;45.45;;;22.20;;
51384;SDS011;37478;55.682;37.462;2024-03-23T03:59:13;47.03;;;20.08;;
51384;SDS011;37478;55.682;37.462;2024-03-23T04:01:39;38.30;;;18.40;;
51384;SDS011;37478;55.682;37.462;2024-03-23T04:04:05;34.33;;;17.98;;
51384;SDS011;37478;55.682;37.462;2024-03-23T04:06:30;46.15;;;20.17;;
51384;SDS011;37478;55.682;37.462;2024-03-23T04:08:56;34.67;;;18.50;;
51384;SDS011;37478;55.682;37.462;2024-03-23T04:11:21;40.78;;;18.77;;
51384;SDS011;37478;55.682;37.462;2024-03-23T04:13:46;41.80;;;18.92;;
51384;SDS011;37478;55.682;37.462;2024-03-23T04:16:13;44.08;;;18.55;;
51384;SDS011;37478;55.682;37.462;2024-03-23T04:18:38;43.05;;;19.35;;
51384;SDS011;37478;55.682;37.462;2024-03-23T04:21:04;35.13;;;16.80;;
51384;SDS011;37478;55.682;37.462;2024-03-23T04:23:29;37.72;;;19.92;;
51384;SDS011;37478;55.682;37.462;2024-03-23T04:25:54;40.28;;;18.25;;
51384;SDS011;37478;55.682;37.462;2024-03-23T04:28:20;39.20;;;18.48;;
51384;SDS011;37478;55.682;37.462;2024-03-23T04:30:46;43.85;;;18.95;;
51384;SDS011;37478;55.682;37.462;2024-03-23T04:33:11;36.65;;;18.20;;
51384;SDS011;37478;55.682;37.462;2024-03-23T04:35:37;41.75;;;18.08;;
51384;SDS011;37478;55.682;37.462;2024-03-23T04:38:02;40.22;;;18.70;;
51384;SDS011;37478;55.682;37.462;2024-03-23T04:40:28;36.55;;;16.52;;
51384;SDS011;37478;55.682;37.462;2024-03-23T04:42:53;40.45;;;18.25;;
51384;SDS011;37478;55.682;37.462;2024-03-23T04:45:19;35.42;;;16.40;;
51384;SDS011;37478;55.682;37.462;2024-03-23T04:47:44;33.80;;;16.10;;
51384;SDS011;37478;55.682;37.462;2024-03-23T04:50:10;36.47;;;17.23;;
51384;SDS011;37478;55.682;37.462;2024-03-23T04:52:36;32.60;;;17.55;;
51384;SDS011;37478;55.682;37.462;2024-03-23T04:55:01;36.67;;;17.75;;
51384;SDS011;37478;55.682;37.462;2024-03-23T04:57:26;35.83;;;18.63;;
51384;SDS011;37478;55.682;37.462;2024-03-23T04:59:52;32.05;;;15.80;;
51384;SDS011;37478;55.682;37.462;2024-03-23T05:02:17;36.97;;;20.15;;
51384;SDS011;37478;55.682;37.462;2024-03-23T05:04:43;40.35;;;17.13;;
51384;SDS011;37478;55.682;37.462;2024-03-23T05:07:08;38.67;;;16.80;;
51384;SDS011;37478;55.682;37.462;2024-03-23T05:09:34;39.10;;;17.48;;
51384;SDS011;37478;55.682;37.462;2024-03-23T05:12:00;34.70;;;15.70;;
51384;SDS011;37478;55.682;37.462;2024-03-23T05:14:25;39.35;;;17.58;;
51384;SDS011;37478;55.682;37.462;2024-03-23T05:16:52;28.73;;;15.10;;
51384;SDS011;37478;55.682;37.462;2024-03-23T05:19:17;31.30;;;18.88;;
51384;SDS011;37478;55.682;37.462;2024-03-23T05:21:42;28.67;;;15.80;;
51384;SDS011;37478;55.682;37.462;2024-03-23T05:24:08;31.80;;;15.43;;
51384;SDS011;37478;55.682;37.462;2024-03-23T05:26:34;27.55;;;14.50;;
51384;SDS011;37478;55.682;37.462;2024-03-23T05:29:00;28.17;;;15.80;;
51384;SDS011;37478;55.682;37.462;2024-03-23T05:31:30;31.48;;;16.17;;
51384;SDS011;37478;55.682;37.462;2024-03-23T05:33:55;29.45;;;15.85;;
51384;SDS011;37478;55.682;37.462;2024-03-23T05:36:21;30.95;;;16.88;;
51384;SDS011;37478;55.682;37.462;2024-03-23T05:38:47;28.25;;;15.32;;
51384;SDS011;37478;55.682;37.462;2024-03-23T05:41:12;36.90;;;16.70;;
51384;SDS011;37478;55.682;37.462;2024-03-23T05:43:37;31.58;;;15.57;;
51384;SDS011;37478;55.682;37.462;2024-03-23T05:46:03;34.65;;;14.68;;
51384;SDS011;37478;55.682;37.462;2024-03-23T05:48:30;29.98;;;15.75;;
51384;SDS011;37478;55.682;37.462;2024-03-23T05:50:55;29.88;;;15.90;;
51384;SDS011;37478;55.682;37.462;2024-03-23T05:53:21;30.50;;;14.82;;
51384;SDS011;37478;55.682;37.462;2024-03-23T05:55:47;35.17;;;16.48;;
51384;SDS011;37478;55.682;37.462;2024-03-23T05:58:14;33.97;;;17.15;;
51384;SDS011;37478;55.682;37.462;2024-03-23T06:00:39;38.67;;;16.80;;
51384;SDS011;37478;55.682;37.462;2024-03-23T06:03:05;32.80;;;16.67;;
51384;SDS011;37478;55.682;37.462;2024-03-23T06:05:30;30.05;;;16.50;;
51384;SDS011;37478;55.682;37.462;2024-03-23T06:07:56;31.95;;;16.17;;
51384;SDS011;37478;55.682;37.462;2024-03-23T06:10:22;38.25;;;18.13;;
51384;SDS011;37478;55.682;37.462;2024-03-23T06:12:48;31.77;;;16.30;;
51384;SDS011;37478;55.682;37.462;2024-03-23T06:15:14;32.10;;;14.93;;
51384;SDS011;37478;55.682;37.462;2024-03-23T06:17:40;32.22;;;15.93;;
51384;SDS011;37478;55.682;37.462;2024-03-23T06:20:05;30.48;;;15.57;;
51384;SDS011;37478;55.682;37.462;2024-03-23T06:22:35;34.40;;;17.63;;
51384;SDS011;37478;55.682;37.462;2024-03-23T06:25:00;30.35;;;14.68;;
51384;SDS011;37478;55.682;37.462;2024-03-23T06:27:26;33.03;;;16.40;;
51384;SDS011;37478;55.682;37.462;2024-03-23T06:29:51;31.08;;;15.55;;
51384;SDS011;37478;55.682;37.462;2024-03-23T06:32:17;30.55;;;14.50;;
51384;SDS011;37478;55.682;37.462;2024-03-23T06:34:43;26.98;;;14.00;;
51384;SDS011;37478;55.682;37.462;2024-03-23T06:37:08;26.52;;;13.18;;
51384;SDS011;37478;55.682;37.462;2024-03-23T06:39:38;26.33;;;12.65;;
51384;SDS011;37478;55.682;37.462;2024-03-23T06:42:03;30.50;;;15.05;;
51384;SDS011;37478;55.682;37.462;2024-03-23T06:44:29;30.15;;;15.95;;
51384;SDS011;37478;55.682;37.462;2024-03-23T06:46:55;29.33;;;14.57;;
51384;SDS011;37478;55.682;37.462;2024-03-23T06:49:20;31.13;;;15.23;;
51384;SDS011;37478;55.682;37.462;2024-03-23T06:51:46;26.02;;;14.05;;
51384;SDS011;37478;55.682;37.462;2024-03-23T06:54:12;29.38;;;14.85;;
51384;SDS011;37478;55.682;37.462;2024-03-23T06:56:37;27.42;;;15.32;;
51384;SDS011;37478;55.682;37.462;2024-03-23T06:59:03;27.30;;;14.27;;
51384;SDS011;37478;55.682;37.462;2024-03-23T07:01:28;29.88;;;14.38;;
51384;SDS011;37478;55.682;37.462;2024-03-23T07:03:54;28.48;;;14.50;;
51384;SDS011;37478;55.682;37.462;2024-03-23T07:06:19;25.10;;;13.48;;
51384;SDS011;37478;55.682;37.462;2024-03-23T07:08:45;24.45;;;12.70;;
51384;SDS011;37478;55.682;37.462;2024-03-23T07:11:10;25.63;;;13.80;;
51384;SDS011;37478;55.682;37.462;2024-03-23T07:13:36;20.70;;;13.00;;
51384;SDS011;37478;55.682;37.462;2024-03-23T07:16:01;25.38;;;14.70;;
51384;SDS011;37478;55.682;37.462;2024-03-23T07:18:27;23.25;;;13.50;;
51384;SDS011;37478;55.682;37.462;2024-03-23T07:20:53;27.00;;;14.38;;
51384;SDS011;37478;55.682;37.462;2024-03-23T07:23:18;21.85;;;12.73;;
51384;SDS011;37478;55.682;37.462;2024-03-23T07:25:44;32.67;;;15.25;;
51384;SDS011;37478;55.682;37.462;2024-03-23T07:28:09;24.33;;;15.20;;
51384;SDS011;37478;55.682;37.462;2024-03-23T07:30:35;29.33;;;13.65;;
51384;SDS011;37478;55.682;37.462;2024-03-23T07:33:01;27.88;;;14.88;;
51384;SDS011;37478;55.682;37.462;2024-03-23T07:35:26;28.63;;;14.95;;
51384;SDS011;37478;55.682;37.462;2024-03-23T07:37:51;26.00;;;15.25;;
51384;SDS011;37478;55.682;37.462;2024-03-23T07:40:17;25.20;;;11.70;;
51384;SDS011;37478;55.682;37.462;2024-03-23T07:42:42;24.05;;;12.00;;
51384;SDS011;37478;55.682;37.462;2024-03-23T07:45:08;28.05;;;13.20;;
51384;SDS011;37478;55.682;37.462;2024-03-23T07:47:34;23.20;;;12.75;;
51384;SDS011;37478;55.682;37.462;2024-03-23T07:50:00;23.05;;;12.25;;
51384;SDS011;37478;55.682;37.462;2024-03-23T07:52:28;24.02;;;13.02;;
51384;SDS011;37478;55.682;37.462;2024-03-23T07:54:53;23.67;;;12.90;;
51384;SDS011;37478;55.682;37.462;2024-03-23T07:57:18;27.50;;;14.88;;
51384;SDS011;37478;55.682;37.462;2024-03-23T07:59:44;28.27;;;13.27;;
51384;SDS011;37478;55.682;37.462;2024-03-23T08:02:09;25.10;;;12.27;;
51384;SDS011;37478;55.682;37.462;2024-03-23T08:04:36;21.73;;;13.50;;
51384;SDS011;37478;55.682;37.462;2024-03-23T08:07:01;27.80;;;13.75;;
51384;SDS011;37478;55.682;37.462;2024-03-23T08:09:26;19.77;;;12.88;;
51384;SDS011;37478;55.682;37.462;2024-03-23T08:11:52;21.60;;;12.18;;
51384;SDS011;37478;55.682;37.462;2024-03-23T08:14:17;23.40;;;12.70;;
51384;SDS011;37478;55.682;37.462;2024-03-23T08:16:43;25.83;;;12.40;;
51384;SDS011;37478;55.682;37.462;2024-03-23T08:19:13;20.25;;;11.60;;
51384;SDS011;37478;55.682;37.462;2024-03-23T08:21:39;25.63;;;12.73;;
51384;SDS011;37478;55.682;37.462;2024-03-23T08:24:05;21.08;;;11.88;;
51384;SDS011;37478;55.682;37.462;2024-03-23T08:26:30;24.42;;;13.13;;
51384;SDS011;37478;55.682;37.462;2024-03-23T08:28:56;17.88;;;9.93;;
51384;SDS011;37478;55.682;37.462;2024-03-23T08:31:22;19.83;;;11.63;;
51384;SDS011;37478;55.682;37.462;2024-03-23T08:33:47;20.80;;;10.90;;
51384;SDS011;37478;55.682;37.462;2024-03-23T08:36:13;21.52;;;10.05;;
51384;SDS011;37478;55.682;37.462;2024-03-23T08:38:39;22.45;;;11.90;;
51384;SDS011;37478;55.682;37.462;2024-03-23T08:43:36;20.10;;;11.20;;
51384;SDS011;37478;55.682;37.462;2024-03-23T08:46:05;17.27;;;10.13;;
51384;SDS011;37478;55.682;37.462;2024-03-23T08:48:31;21.63;;;11.65;;
51384;SDS011;37478;55.682;37.462;2024-03-23T08:51:01;18.40;;;10.50;;
51384;SDS011;37478;55.682;37.462;2024-03-23T08:53:29;18.17;;;9.38;;
51384;SDS011;37478;55.682;37.462;2024-03-23T08:55:58;18.17;;;10.65;;
51384;SDS011;37478;55.682;37.462;2024-03-23T08:58:24;20.10;;;11.48;;
51384;SDS011;37478;55.682;37.462;2024-03-23T09:00:50;22.27;;;12.15;;
51384;SDS011;37478;55.682;37.462;2024-03-23T09:03:16;24.58;;;10.43;;
51384;SDS011;37478;55.682;37.462;2024-03-23T09:05:42;24.23;;;11.20;;
51384;SDS011;37478;55.682;37.462;2024-03-23T09:08:07;22.13;;;11.50;;
51384;SDS011;37478;55.682;37.462;2024-03-23T09:10:39;21.58;;;10.68;;
51384;SDS011;37478;55.682;37.462;2024-03-23T09:13:05;18.58;;;10.40;;
51384;SDS011;37478;55.682;37.462;2024-03-23T09:15:32;20.50;;;11.05;;
51384;SDS011;37478;55.682;37.462;2024-03-23T09:18:01;22.52;;;11.32;;
51384;SDS011;37478;55.682;37.462;2024-03-23T09:20:27;22.60;;;11.35;;
51384;SDS011;37478;55.682;37.462;2024-03-23T09:22:52;21.02;;;10.57;;
51384;SDS011;37478;55.682;37.462;2024-03-23T09:25:18;21.60;;;11.85;;
51384;SDS011;37478;55.682;37.462;2024-03-23T09:27:45;22.17;;;11.65;;
51384;SDS011;37478;55.682;37.462;2024-03-23T09:30:11;19.77;;;10.85;;
51384;SDS011;37478;55.682;37.462;2024-03-23T09:32:37;23.40;;;10.88;;
51384;SDS011;37478;55.682;37.462;2024-03-23T09:35:02;20.27;;;11.40;;
51384;SDS011;37478;55.682;37.462;2024-03-23T09:37:28;19.98;;;11.20;;
51384;SDS011;37478;55.682;37.462;2024-03-23T09:39:53;20.42;;;10.57;;
51384;SDS011;37478;55.682;37.462;2024-03-23T09:42:18;21.17;;;11.35;;
51384;SDS011;37478;55.682;37.462;2024-03-23T09:44:44;19.20;;;10.40;;
51384;SDS011;37478;55.682;37.462;2024-03-23T09:47:10;18.15;;;10.57;;
51384;SDS011;37478;55.682;37.462;2024-03-23T09:49:37;16.13;;;10.60;;
51384;SDS011;37478;55.682;37.462;2024-03-23T09:52:03;19.67;;;10.43;;
51384;SDS011;37478;55.682;37.462;2024-03-23T09:54:29;16.75;;;10.90;;
51384;SDS011;37478;55.682;37.462;2024-03-23T09:56:55;20.30;;;11.30;;
51384;SDS011;37478;55.682;37.462;2024-03-23T09:59:20;18.48;;;11.15;;
51384;SDS011;37478;55.682;37.462;2024-03-23T10:01:46;19.30;;;11.05;;
51384;SDS011;37478;55.682;37.462;2024-03-23T10:04:12;25.10;;;12.05;;
51384;SDS011;37478;55.682;37.462;2024-03-23T10:06:58;20.83;;;10.00;;
51384;SDS011;37478;55.682;37.462;2024-03-23T10:09:35;23.95;;;11.18;;
51384;SDS011;37478;55.682;37.462;2024-03-23T10:12:07;15.00;;;10.82;;
51384;SDS011;37478;55.682;37.462;2024-03-23T10:14:33;21.13;;;10.77;;
51384;SDS011;37478;55.682;37.462;2024-03-23T10:17:11;19.73;;;10.35;;
51384;SDS011;37478;55.682;37.462;2024-03-23T10:19:38;23.45;;;10.63;;
51384;SDS011;37478;55.682;37.462;2024-03-23T10:22:04;16.27;;;9.70;;
51384;SDS011;37478;55.682;37.462;2024-03-23T10:24:29;18.83;;;9.95;;
51384;SDS011;37478;55.682;37.462;2024-03-23T10:26:58;16.58;;;10.27;;
51384;SDS011;37478;55.682;37.462;2024-03-23T10:29:23;19.83;;;11.07;;
51384;SDS011;37478;55.682;37.462;2024-03-23T10:31:52;17.13;;;9.95;;
51384;SDS011;37478;55.682;37.462;2024-03-23T10:34:24;20.52;;;11.52;;
51384;SDS011;37478;55.682;37.462;2024-03-23T10:36:50;16.15;;;10.35;;
51384;SDS011;37478;55.682;37.462;2024-03-23T10:39:17;21.50;;;11.27;;
51384;SDS011;37478;55.682;37.462;2024-03-23T10:41:47;20.85;;;10.68;;
51384;SDS011;37478;55.682;37.462;2024-03-23T10:44:14;20.50;;;11.43;;
51384;SDS011;37478;55.682;37.462;2024-03-23T10:46:40;20.85;;;11.05;;
51384;SDS011;37478;55.682;37.462;2024-03-23T10:49:05;19.25;;;10.48;;
51384;SDS011;37478;55.682;37.462;2024-03-23T10:51:31;17.83;;;10.27;;
51384;SDS011;37478;55.682;37.462;2024-03-23T10:53:57;21.35;;;11.90;;
51384;SDS011;37478;55.682;37.462;2024-03-23T10:56:24;23.30;;;11.38;;
51384;SDS011;37478;55.682;37.462;2024-03-23T10:58:50;18.42;;;10.80;;
51384;SDS011;37478;55.682;37.462;2024-03-23T11:01:16;21.27;;;10.93;;
51384;SDS011;37478;55.682;37.462;2024-03-23T11:03:45;21.52;;;11.10;;
51384;SDS011;37478;55.682;37.462;2024-03-23T11:06:11;21.90;;;11.35;;
51384;SDS011;37478;55.682;37.462;2024-03-23T11:08:56;20.50;;;10.88;;
51384;SDS011;37478;55.682;37.462;2024-03-23T11:11:21;19.05;;;9.57;;
51384;SDS011;37478;55.682;37.462;2024-03-23T11:13:51;20.92;;;11.10;;
51384;SDS011;37478;55.682;37.462;2024-03-23T11:16:27;20.75;;;11.60;;
51384;SDS011;37478;55.682;37.462;2024-03-23T11:18:55;22.13;;;11.95;;
51384;SDS011;37478;55.682;37.462;2024-03-23T11:21:52;19.75;;;11.07;;
51384;SDS011;37478;55.682;37.462;2024-03-23T11:24:18;18.52;;;11.10;;
51384;SDS011;37478;55.682;37.462;2024-03-23T11:26:45;17.08;;;9.32;;
51384;SDS011;37478;55.682;37.462;2024-03-23T11:29:10;22.73;;;11.18;;
51384;SDS011;37478;55.682;37.462;2024-03-23T11:31:37;19.33;;;11.48;;
51384;SDS011;37478;55.682;37.462;2024-03-23T11:34:03;17.67;;;11.25;;
51384;SDS011;37478;55.682;37.462;2024-03-23T11:36:29;22.98;;;12.65;;
51384;SDS011;37478;55.682;37.462;2024-03-23T11:38:54;18.67;;;10.70;;
51384;SDS011;37478;55.682;37.462;2024-03-23T11:41:20;18.55;;;10.75;;
51384;SDS011;37478;55.682;37.462;2024-03-23T11:43:45;23.23;;;12.27;;
51384;SDS011;37478;55.682;37.462;2024-03-23T11:46:10;21.35;;;12.93;;
51384;SDS011;37478;55.682;37.462;2024-03-23T11:48:36;24.75;;;13.18;;
51384;SDS011;37478;55.682;37.462;2024-03-23T11:51:01;25.00;;;12.05;;
51384;SDS011;37478;55.682;37.462;2024-03-23T11:53:27;18.95;;;11.23;;
51384;SDS011;37478;55.682;37.462;2024-03-23T11:55:53;30.00;;;15.07;;
51384;SDS011;37478;55.682;37.462;2024-03-23T11:58:19;27.23;;;13.00;;
51384;SDS011;37478;55.682;37.462;2024-03-23T12:00:49;26.33;;;12.90;;
51384;SDS011;37478;55.682;37.462;2024-03-23T12:03:16;20.95;;;11.60;;
51384;SDS011;37478;55.682;37.462;2024-03-23T12:05:41;27.67;;;14.57;;
51384;SDS011;37478;55.682;37.462;2024-03-23T12:10:43;25.70;;;13.17;;
51384;SDS011;37478;55.682;37.462;2024-03-23T12:13:09;25.05;;;14.00;;
51384;SDS011;37478;55.682;37.462;2024-03-23T12:15:35;25.38;;;13.23;;
51384;SDS011;37478;55.682;37.462;2024-03-23T12:18:07;29.50;;;13.30;;
51384;SDS011;37478;55.682;37.462;2024-03-23T12:20:33;26.05;;;13.05;;
51384;SDS011;37478;55.682;37.462;2024-03-23T12:23:32;26.50;;;14.13;;
51384;SDS011;37478;55.682;37.462;2024-03-23T12:25:50;29.67;;;13.32;;
51384;SDS011;37478;55.682;37.462;2024-03-23T12:28:16;23.38;;;13.32;;
51384;SDS011;37478;55.682;37.462;2024-03-23T12:30:42;26.42;;;14.27;;
51384;SDS011;37478;55.682;37.462;2024-03-23T12:33:07;27.15;;;14.40;;
51384;SDS011;37478;55.682;37.462;2024-03-23T12:35:33;31.67;;;14.30;;
51384;SDS011;37478;55.682;37.462;2024-03-23T12:37:58;29.15;;;15.48;;
51384;SDS011;37478;55.682;37.462;2024-03-23T12:40:24;25.88;;;13.93;;
51384;SDS011;37478;55.682;37.462;2024-03-23T12:42:50;26.20;;;15.02;;
51384;SDS011;37478;55.682;37.462;2024-03-23T12:45:15;29.98;;;15.10;;
51384;SDS011;37478;55.682;37.462;2024-03-23T12:47:41;32.88;;;13.85;;
51384;SDS011;37478;55.682;37.462;2024-03-23T12:50:06;29.15;;;15.45;;
51384;SDS011;37478;55.682;37.462;2024-03-23T12:52:35;30.30;;;15.93;;
51384;SDS011;37478;55.682;37.462;2024-03-23T12:55:00;38.65;;;17.05;;
51384;SDS011;37478;55.682;37.462;2024-03-23T12:57:26;27.83;;;15.02;;
51384;SDS011;37478;55.682;37.462;2024-03-23T12:59:52;26.17;;;14.68;;
51384;SDS011;37478;55.682;37.462;2024-03-23T13:02:20;25.58;;;14.48;;
51384;SDS011;37478;55.682;37.462;2024-03-23T13:04:49;27.40;;;13.63;;
51384;SDS011;37478;55.682;37.462;2024-03-23T13:07:14;35.35;;;15.80;;
51384;SDS011;37478;55.682;37.462;2024-03-23T13:09:40;32.67;;;15.43;;
51384;SDS011;37478;55.682;37.462;2024-03-23T13:12:05;32.28;;;15.13;;
51384;SDS011;37478;55.682;37.462;2024-03-23T13:14:31;24.88;;;13.80;;
51384;SDS011;37478;55.682;37.462;2024-03-23T13:16:56;34.67;;;14.48;;
51384;SDS011;37478;55.682;37.462;2024-03-23T13:19:22;32.35;;;15.02;;
51384;SDS011;37478;55.682;37.462;2024-03-23T13:21:52;29.10;;;14.68;;
51384;SDS011;37478;55.682;37.462;2024-03-23T13:24:20;26.35;;;12.57;;
51384;SDS011;37478;55.682;37.462;2024-03-23T13:26:46;31.10;;;13.57;;
51384;SDS011;37478;55.682;37.462;2024-03-23T13:29:11;28.42;;;13.93;;
51384;SDS011;37478;55.682;37.462;2024-03-23T13:31:37;33.22;;;13.57;;
51384;SDS011;37478;55.682;37.462;2024-03-23T13:34:02;28.13;;;13.80;;
51384;SDS011;37478;55.682;37.462;2024-03-23T13:36:28;25.02;;;13.13;;
51384;SDS011;37478;55.682;37.462;2024-03-23T13:38:53;23.13;;;12.70;;
51384;SDS011;37478;55.682;37.462;2024-03-23T13:41:18;23.65;;;12.57;;
51384;SDS011;37478;55.682;37.462;2024-03-23T13:43:44;23.75;;;12.73;;
51384;SDS011;37478;55.682;37.462;2024-03-23T13:46:09;29.80;;;14.55;;
51384;SDS011;37478;55.682;37.462;2024-03-23T13:48:35;20.92;;;11.27;;
51384;SDS011;37478;55.682;37.462;2024-03-23T13:51:01;25.40;;;11.63;;
51384;SDS011;37478;55.682;37.462;2024-03-23T13:53:27;25.38;;;12.57;;
51384;SDS011;37478;55.682;37.462;2024-03-23T13:55:52;23.45;;;12.07;;
51384;SDS011;37478;55.682;37.462;2024-03-23T13:58:18;21.33;;;10.65;;
51384;SDS011;37478;55.682;37.462;2024-03-23T14:00:44;23.20;;;12.07;;
51384;SDS011;37478;55.682;37.462;2024-03-23T14:03:13;24.98;;;11.73;;
51384;SDS011;37478;55.682;37.462;2024-03-23T14:05:38;20.83;;;11.98;;
51384;SDS011;37478;55.682;37.462;2024-03-23T14:08:05;27.48;;;12.18;;
51384;SDS011;37478;55.682;37.462;2024-03-23T14:10:31;25.33;;;10.93;;
51384;SDS011;37478;55.682;37.462;2024-03-23T14:12:56;21.60;;;11.90;;
51384;SDS011;37478;55.682;37.462;2024-03-23T14:15:21;18.88;;;10.98;;
51384;SDS011;37478;55.682;37.462;2024-03-23T14:17:47;25.88;;;12.48;;
51384;SDS011;37478;55.682;37.462;2024-03-23T14:20:12;18.38;;;9.95;;
51384;SDS011;37478;55.682;37.462;2024-03-23T14:22:38;22.23;;;10.73;;
51384;SDS011;37478;55.682;37.462;2024-03-23T14:25:06;20.23;;;10.77;;
51384;SDS011;37478;55.682;37.462;2024-03-23T14:27:32;20.45;;;10.30;;
51384;SDS011;37478;55.682;37.462;2024-03-23T14:29:57;22.67;;;10.63;;
51384;SDS011;37478;55.682;37.462;2024-03-23T14:32:22;20.50;;;11.90;;
51384;SDS011;37478;55.682;37.462;2024-03-23T14:34:48;20.15;;;11.35;;
51384;SDS011;37478;55.682;37.462;2024-03-23T14:37:14;21.50;;;10.88;;
51384;SDS011;37478;55.682;37.462;2024-03-23T14:39:41;19.58;;;9.95;;
51384;SDS011;37478;55.682;37.462;2024-03-23T14:42:07;21.10;;;11.25;;
51384;SDS011;37478;55.682;37.462;2024-03-23T14:44:33;20.65;;;11.68;;
51384;SDS011;37478;55.682;37.462;2024-03-23T14:46:59;21.63;;;10.85;;
51384;SDS011;37478;55.682;37.462;2024-03-23T14:49:24;18.67;;;10.35;;
51384;SDS011;37478;55.682;37.462;2024-03-23T14:51:51;20.05;;;10.68;;
51384;SDS011;37478;55.682;37.462;2024-03-23T14:54:16;21.67;;;11.30;;
51384;SDS011;37478;55.682;37.462;2024-03-23T14:56:42;22.05;;;11.50;;
51384;SDS011;37478;55.682;37.462;2024-03-23T14:59:07;20.02;;;10.60;;
51384;SDS011;37478;55.682;37.462;2024-03-23T15:01:33;25.25;;;11.52;;